Time,TemperatureF,DewpointF,PressureIn,WindDirection,WindDirectionDegrees,WindSpeedMPH,WindSpeedGustMPH,Humidity,HourlyPrecipIn,Conditions,Clouds,dailyrainin,SoftwareType,DateUTC
2013-03-05 00:00:00,29.8,-6.3,29.48,NNW,346,7.8,9.8,20,0.00,,---,0.00,VWS V13.01,2013-03-05 05:00:00,
2013-03-05 00:20:00,29.5,-6.6,29.51,North,357,0.0,15.4,20,0.00,,---,0.00,VWS V13.01,2013-03-05 05:20:00,
2013-03-05 00:40:00,29.1,-6.9,29.51,NW,325,0.0,9.8,20,0.00,,---,0.00,VWS V13.01,2013-03-05 05:40:00,
2013-03-05 01:00:00,29.3,-6.8,29.51,NNW,337,0.0,8.3,20,0.00,,---,0.00,VWS V13.01,2013-03-05 06:00:00,
2013-03-05 01:20:00,29.5,-6.6,29.51,NW,316,0.0,12.1,20,0.00,,---,0.00,VWS V13.01,2013-03-05 06:20:00,
2013-03-05 01:40:00,29.5,-6.6,29.51,NW,314,0.0,10.3,20,0.00,,---,0.00,VWS V13.01,2013-03-05 06:40:00,
2013-03-05 02:00:00,29.5,-6.6,29.51,North,353,0.0,9.8,20,0.00,,---,0.00,VWS V13.01,2013-03-05 07:00:00,
2013-03-05 02:20:00,29.3,-6.8,29.51,NNW,334,0.0,9.8,20,0.00,,---,0.00,VWS V13.01,2013-03-05 07:20:00,
2013-03-05 02:40:00,29.1,-6.9,29.51,NW,311,6.0,7.8,20,0.00,,---,0.00,VWS V13.01,2013-03-05 07:40:00,
2013-03-05 03:00:00,29.1,-6.9,29.51,WNW,298,0.0,8.7,20,0.00,,---,0.00,VWS V13.01,2013-03-05 08:00:00,
2013-03-05 03:20:00,29.1,-6.9,29.51,NW,315,0.0,6.5,20,0.00,,---,0.00,VWS V13.01,2013-03-05 08:20:00,
2013-03-05 03:40:00,28.9,-7.1,29.51,NW,308,0.0,8.3,20,0.00,,---,0.00,VWS V13.01,2013-03-05 08:40:00,
2013-03-05 04:00:00,28.6,-7.4,29.54,NNW,336,0.0,5.6,20,0.00,,---,0.00,VWS V13.01,2013-03-05 09:00:00,
2013-03-05 04:20:00,28.8,-7.2,29.54,WNW,296,0.0,10.7,20,0.00,,---,0.00,VWS V13.01,2013-03-05 09:20:00,
2013-03-05 04:40:00,28.9,-7.1,29.54,North,349,0.0,7.4,20,0.00,,---,0.00,VWS V13.01,2013-03-05 09:40:00,
2013-03-05 05:00:00,28.9,-7.1,29.54,NNW,346,0.0,10.7,20,0.00,,---,0.00,VWS V13.01,2013-03-05 10:00:00,
2013-03-05 05:20:00,28.9,-7.1,29.54,WNW,298,6.0,8.9,20,0.00,,---,0.00,VWS V13.01,2013-03-05 10:20:00,
2013-03-05 05:40:00,28.9,-7.1,29.57,North,353,3.6,6.9,20,0.00,,---,0.00,VWS V13.01,2013-03-05 10:40:00,
2013-03-05 06:00:00,28.8,-7.2,29.57,WNW,301,3.6,9.8,20,0.00,,---,0.00,VWS V13.01,2013-03-05 11:00:00,
2013-03-05 06:20:00,28.9,-7.1,29.57,NNW,337,0.0,13.2,20,0.00,,---,0.00,VWS V13.01,2013-03-05 11:20:00,
2013-03-05 06:40:00,29.1,-6.9,29.57,NNW,329,0.0,9.8,20,0.00,,---,0.00,VWS V13.01,2013-03-05 11:40:00,
2013-03-05 07:00:00,29.3,-6.8,29.57,NW,325,0.0,9.8,20,0.00,,---,0.00,VWS V13.01,2013-03-05 12:00:00,
2013-03-05 07:20:00,30.2,-6.0,29.57,NW,311,0.0,9.8,20,0.00,,---,0.00,VWS V13.01,2013-03-05 12:20:00,
2013-03-05 07:40:00,31.5,-5.0,29.57,NNW,344,0.0,8.9,20,0.00,,---,0.00,VWS V13.01,2013-03-05 12:40:00,
2013-03-05 08:00:00,34.5,-2.4,29.59,NW,319,0.0,12.5,20,0.00,,---,0.00,VWS V13.01,2013-03-05 13:00:00,
2013-03-05 08:20:00,36.9,-1.5,29.59,North,8,6.9,10.3,19,0.00,,---,0.00,VWS V13.01,2013-03-05 13:20:00,
2013-03-05 08:40:00,39.0,0.3,29.59,North,357,8.7,11.2,19,0.00,,---,0.00,VWS V13.01,2013-03-05 13:40:00,
2013-03-05 09:00:00,37.0,-1.4,29.59,NNW,330,0.0,11.6,19,0.00,,---,0.00,VWS V13.01,2013-03-05 14:00:00,
2013-03-05 09:20:00,39.2,-0.7,29.59,North,357,0.0,9.8,18,0.00,,---,0.00,VWS V13.01,2013-03-05 14:20:00,
2013-03-05 09:40:00,44.4,3.6,29.59,WNW,289,4.5,7.8,18,0.00,,---,0.00,VWS V13.01,2013-03-05 14:40:00,
2013-03-05 10:00:00,48.9,4.7,29.59,North,7,0.0,11.6,16,0.00,,---,0.00,VWS V13.01,2013-03-05 15:00:00,
2013-03-05 10:20:00,46.9,4.4,29.59,North,357,0.0,8.3,17,0.00,,---,0.00,VWS V13.01,2013-03-05 15:20:00,
2013-03-05 10:40:00,45.1,2.9,29.59,WNW,293,0.0,7.8,17,0.00,,---,0.00,VWS V13.01,2013-03-05 15:40:00,
2013-03-05 11:00:00,48.2,4.1,29.59,North,353,0.0,6.9,16,0.00,,---,0.00,VWS V13.01,2013-03-05 16:00:00,
2013-03-05 11:20:00,44.8,2.6,29.59,NW,326,4.5,8.9,17,0.00,,---,0.00,VWS V13.01,2013-03-05 16:20:00,
2013-03-05 11:40:00,49.6,5.3,29.59,NW,304,2.7,10.7,16,0.00,,---,0.00,VWS V13.01,2013-03-05 16:40:00,
2013-03-05 12:00:00,54.1,7.5,29.59,North,349,0.0,10.3,15,0.00,,---,0.00,VWS V13.01,2013-03-05 17:00:00,
2013-03-05 12:20:00,50.9,6.3,29.59,NE,49,0.0,6.5,16,0.00,,---,0.00,VWS V13.01,2013-03-05 17:20:00,
2013-03-05 12:40:00,52.9,7.9,29.59,North,349,0.0,6.9,16,0.00,,---,0.00,VWS V13.01,2013-03-05 17:40:00,
2013-03-05 13:00:00,56.8,9.7,29.59,WNW,289,0.0,8.7,15,0.00,,---,0.00,VWS V13.01,2013-03-05 18:00:00,
2013-03-05 13:20:00,52.9,7.9,29.59,NNW,335,0.0,8.7,16,0.00,,---,0.00,VWS V13.01,2013-03-05 18:20:00,
2013-03-05 13:40:00,47.3,4.7,29.59,NNW,348,0.0,6.0,17,0.00,,---,0.00,VWS V13.01,2013-03-05 18:40:00,
2013-03-05 14:00:00,45.9,3.5,29.59,West,262,0.0,7.4,17,0.00,,---,0.00,VWS V13.01,2013-03-05 19:00:00,
2013-03-05 14:20:00,45.5,3.2,29.59,North,357,0.0,5.1,17,0.00,,---,0.00,VWS V13.01,2013-03-05 19:20:00,
2013-03-05 14:40:00,45.1,2.9,29.59,WNW,292,0.0,0.0,17,0.00,,---,0.00,VWS V13.01,2013-03-05 19:40:00,
2013-03-05 15:00:00,45.5,3.2,29.59,WNW,291,0.0,10.3,17,0.00,,---,0.00,VWS V13.01,2013-03-05 20:00:00,
2013-03-05 15:20:00,45.5,3.2,29.59,East,84,0.0,0.0,17,0.00,,---,0.00,VWS V13.01,2013-03-05 20:20:00,
2013-03-05 15:40:00,45.9,3.5,29.59,NNW,341,0.0,0.0,17,0.00,,---,0.00,VWS V13.01,2013-03-05 20:40:00,
2013-03-05 16:00:00,45.7,3.4,29.59,East,89,0.0,2.7,17,0.00,,---,0.00,VWS V13.01,2013-03-05 21:00:00,
2013-03-05 16:20:00,45.3,3.1,29.59,North,10,0.0,4.7,17,0.00,,---,0.00,VWS V13.01,2013-03-05 21:20:00,
2013-03-05 16:40:00,44.6,2.5,29.59,North,357,0.0,0.0,17,0.00,,---,0.00,VWS V13.01,2013-03-05 21:40:00,
2013-03-05 17:00:00,44.8,2.6,29.59,North,3,0.0,0.0,17,0.00,,---,0.00,VWS V13.01,2013-03-05 22:00:00,
2013-03-05 17:20:00,44.2,3.4,29.59,North,353,0.0,0.0,18,0.00,,---,0.00,VWS V13.01,2013-03-05 22:20:00,
2013-03-05 17:40:00,43.7,3.0,29.59,NNW,345,0.0,0.0,18,0.00,,---,0.00,VWS V13.01,2013-03-05 22:40:00,
2013-03-05 18:00:00,43.0,2.4,29.59,NNW,345,0.0,0.0,18,0.00,,---,0.00,VWS V13.01,2013-03-05 23:00:00,
2013-03-05 18:20:00,42.3,1.8,29.62,NNW,345,0.0,0.0,18,0.00,,---,0.00,VWS V13.01,2013-03-05 23:20:00,
2013-03-05 18:40:00,41.9,1.5,29.62,North,349,0.0,0.0,18,0.00,,---,0.00,VWS V13.01,2013-03-05 23:40:00,
2013-03-05 19:00:00,41.2,0.9,29.62,North,350,0.0,0.0,18,0.00,,---,0.00,VWS V13.01,2013-03-06 00:00:00,
2013-03-05 19:20:00,40.6,0.5,29.65,North,350,0.0,0.0,18,0.00,,---,0.00,VWS V13.01,2013-03-06 00:20:00,
2013-03-05 19:40:00,40.1,0.0,29.65,North,350,0.0,0.0,18,0.00,,---,0.00,VWS V13.01,2013-03-06 00:40:00,
2013-03-05 20:00:00,39.7,-0.3,29.65,North,350,0.0,0.0,18,0.00,,---,0.00,VWS V13.01,2013-03-06 01:00:00,
2013-03-05 20:20:00,39.4,-0.6,29.65,North,350,0.0,0.0,18,0.00,,---,0.00,VWS V13.01,2013-03-06 01:20:00,
2013-03-05 20:40:00,39.0,0.3,29.65,North,349,0.0,0.0,19,0.00,,---,0.00,VWS V13.01,2013-03-06 01:40:00,
2013-03-05 21:00:00,38.7,0.0,29.65,North,350,0.0,0.0,19,0.00,,---,0.00,VWS V13.01,2013-03-06 02:00:00,
2013-03-05 21:19:00,38.5,-0.2,29.65,North,349,0.0,0.0,19,0.00,,---,0.00,VWS V13.01,2013-03-06 02:19:00,
2013-03-05 21:40:00,38.1,-0.5,29.65,North,350,0.0,0.0,19,0.00,,---,0.00,VWS V13.01,2013-03-06 02:40:00,
2013-03-05 22:00:00,37.9,-0.6,29.62,North,349,0.0,0.0,19,0.00,,---,0.00,VWS V13.01,2013-03-06 03:00:00,
2013-03-05 22:20:00,38.3,-0.3,29.65,NNE,14,0.0,0.0,19,0.00,,---,0.00,VWS V13.01,2013-03-06 03:20:00,
2013-03-05 22:40:00,38.5,-0.2,29.62,East,91,0.0,0.0,19,0.00,,---,0.00,VWS V13.01,2013-03-06 03:40:00,
2013-03-05 23:00:00,38.5,-0.2,29.62,East,82,0.0,0.0,19,0.00,,---,0.00,VWS V13.01,2013-03-06 04:00:00,
2013-03-05 23:20:00,38.1,-0.5,29.62,East,82,0.0,0.0,19,0.00,,---,0.00,VWS V13.01,2013-03-06 04:20:00,
2013-03-05 23:40:00,37.8,-0.8,29.62,East,82,0.0,0.0,19,0.00,,---,0.00,VWS V13.01,2013-03-06 04:40:00,